RYR22C LEMI-EGBB
Flight info
| Callsign | RYR22C |
|---|---|
| Flight time | 2h 9m |
| Altitude | 38000 |
| Route | ALT1S ALT N851 MITOS N608 COMPI DCT DIKUT Y90 USKAR N863 GIROM DCT GONUP DCT TUPAR UN861 DIKRO UM184 HEMEL HEMEL1B |
| Aircraft | B738/M-SDE2E3FGHIRWXY/LB1 |
Departure
| Time | 2026-05-04 08:42 |
|---|---|
| Airport | Region of Murcia International Airport (LEMI) |
Arrival
| Time | 2026-05-04 10:51 |
|---|---|
| Airport | Birmingham Airport (EGBB) |
| Time | Latitude | Longitude | Altitude | Speed | Heading |
|---|---|---|---|---|---|
| 2026-05-04 08:28 | 37.80422 | -1.13027 | 651 ft | 0 kts | 315° |
| 2026-05-04 08:31 | 37.80416 | -1.13020 | 651 ft | 2 kts | 315° |
| 2026-05-04 08:33 | 37.80354 | -1.12988 | 651 ft | 0 kts | 40° |
| 2026-05-04 08:37 | 37.80454 | -1.12801 | 651 ft | 6 kts | 108° |
| 2026-05-04 08:37 | 37.80429 | -1.12760 | 651 ft | 6 kts | 133° |
| 2026-05-04 08:37 | 37.80399 | -1.12709 | 652 ft | 8 kts | 107° |
| 2026-05-04 08:38 | 37.80422 | -1.12641 | 652 ft | 10 kts | 45° |
| 2026-05-04 08:38 | 37.80474 | -1.12572 | 651 ft | 12 kts | 46° |
| 2026-05-04 08:38 | 37.80542 | -1.12486 | 651 ft | 17 kts | 45° |
| 2026-05-04 08:40 | 37.81197 | -1.11639 | 651 ft | 17 kts | 48° |
| 2026-05-04 08:40 | 37.81279 | -1.11534 | 651 ft | 17 kts | 43° |
| 2026-05-04 08:40 | 37.81362 | -1.11437 | 651 ft | 16 kts | 44° |
| 2026-05-04 08:41 | 37.81381 | -1.11317 | 651 ft | 15 kts | 127° |
| 2026-05-04 08:41 | 37.81285 | -1.11277 | 650 ft | 15 kts | 181° |
| 2026-05-04 08:41 | 37.81199 | -1.11333 | 651 ft | 15 kts | 224° |
| 2026-05-04 08:41 | 37.81057 | -1.11522 | 650 ft | 58 kts | 225° |
| 2026-05-04 08:42 | 37.80604 | -1.12098 | 650 ft | 123 kts | 225° |
| 2026-05-04 08:42 | 37.79862 | -1.12997 | 778 ft | 161 kts | 221° |
| 2026-05-04 08:42 | 37.79017 | -1.13966 | 1373 ft | 168 kts | 221° |
| 2026-05-04 08:42 | 37.78104 | -1.14928 | 2063 ft | 173 kts | 217° |
| 2026-05-04 08:43 | 37.77119 | -1.15823 | 2770 ft | 176 kts | 216° |
| 2026-05-04 08:43 | 37.76115 | -1.16717 | 3503 ft | 177 kts | 216° |
| 2026-05-04 08:43 | 37.75099 | -1.17621 | 4111 ft | 188 kts | 216° |
| 2026-05-04 08:43 | 37.73950 | -1.18645 | 4340 ft | 214 kts | 216° |
| 2026-05-04 08:44 | 37.72717 | -1.19865 | 4519 ft | 237 kts | 223° |
| 2026-05-04 08:44 | 37.71456 | -1.21331 | 4884 ft | 253 kts | 224° |
| 2026-05-04 08:46 | 37.66537 | -1.33731 | 10021 ft | 263 kts | 302° |
| 2026-05-04 08:46 | 37.67931 | -1.35289 | 10738 ft | 277 kts | 326° |
| 2026-05-04 08:46 | 37.69833 | -1.35982 | 11407 ft | 296 kts | 352° |
| 2026-05-04 08:46 | 37.71916 | -1.35574 | 12108 ft | 312 kts | 17° |
| 2026-05-04 08:47 | 37.73757 | -1.34064 | 12804 ft | 324 kts | 45° |
| 2026-05-04 08:47 | 37.74942 | -1.31628 | 13463 ft | 330 kts | 70° |
| 2026-05-04 08:47 | 37.75851 | -1.28926 | 13947 ft | 344 kts | 56° |
| 2026-05-04 08:47 | 37.77598 | -1.26768 | 14096 ft | 362 kts | 30° |
| 2026-05-04 08:48 | 37.79813 | -1.25096 | 14268 ft | 382 kts | 26° |
| 2026-05-04 08:48 | 37.82186 | -1.23406 | 14557 ft | 397 kts | 26° |
| 2026-05-04 08:48 | 37.84609 | -1.21663 | 15063 ft | 405 kts | 26° |
| 2026-05-04 08:48 | 37.87062 | -1.19854 | 15710 ft | 410 kts | 27° |
| 2026-05-04 08:49 | 37.89521 | -1.17995 | 16350 ft | 414 kts | 27° |
| 2026-05-04 08:50 | 38.04727 | -1.06074 | 19879 ft | 440 kts | 28° |
| 2026-05-04 08:50 | 38.07337 | -1.04009 | 20420 ft | 444 kts | 28° |
| 2026-05-04 08:51 | 38.09976 | -1.01920 | 20964 ft | 448 kts | 28° |
| 2026-05-04 08:51 | 38.12624 | -0.99822 | 21488 ft | 452 kts | 28° |
| 2026-05-04 08:51 | 38.15307 | -0.97697 | 21985 ft | 456 kts | 28° |
| 2026-05-04 08:51 | 38.18006 | -0.95556 | 22490 ft | 460 kts | 28° |
| 2026-05-04 08:52 | 38.20735 | -0.93390 | 23033 ft | 464 kts | 28° |
| 2026-05-04 08:52 | 38.23481 | -0.91209 | 23526 ft | 468 kts | 28° |
| 2026-05-04 08:52 | 38.26255 | -0.89002 | 23952 ft | 471 kts | 28° |
| 2026-05-04 08:52 | 38.29048 | -0.86779 | 24378 ft | 474 kts | 28° |
| 2026-05-04 08:53 | 38.31817 | -0.84573 | 24788 ft | 477 kts | 28° |
| 2026-05-04 08:54 | 38.51958 | -0.68465 | 27438 ft | 499 kts | 28° |
| 2026-05-04 08:55 | 38.54903 | -0.66101 | 27806 ft | 502 kts | 29° |
| 2026-05-04 08:55 | 38.57864 | -0.63721 | 28172 ft | 504 kts | 28° |
| 2026-05-04 08:55 | 38.60843 | -0.61325 | 28488 ft | 508 kts | 28° |
| 2026-05-04 08:55 | 38.63842 | -0.58911 | 28826 ft | 511 kts | 28° |
| 2026-05-04 08:57 | 38.85276 | -0.41580 | 30912 ft | 528 kts | 29° |
| 2026-05-04 09:01 | 39.28290 | -0.06415 | 35354 ft | 519 kts | 29° |
| 2026-05-04 09:01 | 39.31333 | -0.03909 | 35615 ft | 518 kts | 29° |
| 2026-05-04 09:01 | 39.34412 | -0.01523 | 35850 ft | 515 kts | 22° |
| 2026-05-04 09:01 | 39.37668 | 0.00326 | 36069 ft | 508 kts | 12° |
| 2026-05-04 09:02 | 39.41043 | 0.01614 | 36280 ft | 505 kts | 9° |
| 2026-05-04 09:02 | 39.44431 | 0.02807 | 36536 ft | 503 kts | 9° |
| 2026-05-04 09:02 | 39.47767 | 0.03968 | 36793 ft | 502 kts | 9° |
| 2026-05-04 09:02 | 39.51134 | 0.05157 | 37040 ft | 502 kts | 9° |
| 2026-05-04 09:03 | 39.54503 | 0.06371 | 37298 ft | 501 kts | 9° |
| 2026-05-04 09:03 | 39.57857 | 0.07600 | 37518 ft | 501 kts | 10° |
| 2026-05-04 09:03 | 39.61208 | 0.08840 | 37735 ft | 502 kts | 10° |
| 2026-05-04 09:03 | 39.64567 | 0.10090 | 37889 ft | 502 kts | 10° |
| 2026-05-04 09:04 | 39.67939 | 0.11347 | 37991 ft | 504 kts | 10° |
| 2026-05-04 09:04 | 39.74682 | 0.13862 | 37983 ft | 503 kts | 10° |
| 2026-05-04 09:05 | 39.81383 | 0.16366 | 38012 ft | 499 kts | 9° |
| 2026-05-04 09:05 | 39.88048 | 0.18857 | 37990 ft | 497 kts | 9° |
| 2026-05-04 09:06 | 39.94685 | 0.21342 | 37990 ft | 495 kts | 9° |
| 2026-05-04 09:08 | 40.21201 | 0.31306 | 37991 ft | 499 kts | 10° |
| 2026-05-04 09:08 | 40.27930 | 0.33847 | 38014 ft | 501 kts | 10° |
| 2026-05-04 09:09 | 40.34651 | 0.36392 | 37991 ft | 503 kts | 11° |
| 2026-05-04 09:09 | 40.40246 | 0.38519 | 37967 ft | 504 kts | 10° |
| 2026-05-04 09:10 | 40.46974 | 0.41086 | 37982 ft | 504 kts | 10° |
| 2026-05-04 09:10 | 40.53711 | 0.43659 | 37993 ft | 504 kts | 11° |
| 2026-05-04 09:11 | 40.60441 | 0.46236 | 37985 ft | 503 kts | 11° |
| 2026-05-04 09:11 | 40.67158 | 0.48813 | 37992 ft | 502 kts | 11° |
| 2026-05-04 09:12 | 40.73865 | 0.51391 | 37982 ft | 501 kts | 11° |
| 2026-05-04 09:14 | 41.00548 | 0.61702 | 37980 ft | 497 kts | 11° |
| 2026-05-04 09:14 | 41.07186 | 0.64280 | 37985 ft | 496 kts | 11° |
| 2026-05-04 09:15 | 41.13815 | 0.66860 | 38008 ft | 496 kts | 11° |
| 2026-05-04 09:15 | 41.20400 | 0.69423 | 37992 ft | 497 kts | 11° |
| 2026-05-04 09:17 | 41.50396 | 0.81160 | 38001 ft | 501 kts | 12° |
| 2026-05-04 09:18 | 41.57099 | 0.83799 | 38004 ft | 502 kts | 12° |
| 2026-05-04 09:18 | 41.63806 | 0.86446 | 37993 ft | 503 kts | 12° |
| 2026-05-04 09:19 | 41.70520 | 0.89101 | 37995 ft | 503 kts | 12° |
| 2026-05-04 09:19 | 41.77242 | 0.91765 | 38027 ft | 504 kts | 12° |
| 2026-05-04 09:20 | 41.83970 | 0.94438 | 37996 ft | 504 kts | 12° |
| 2026-05-04 09:20 | 41.90630 | 0.97089 | 37982 ft | 504 kts | 12° |
| 2026-05-04 09:21 | 41.97406 | 0.99792 | 37970 ft | 504 kts | 12° |
| 2026-05-04 09:21 | 42.04056 | 1.02452 | 37991 ft | 503 kts | 13° |
| 2026-05-04 09:22 | 42.10772 | 1.05136 | 37970 ft | 502 kts | 11° |
| 2026-05-04 09:22 | 42.17614 | 1.06387 | 37988 ft | 488 kts | 352° |
| 2026-05-04 09:23 | 42.24293 | 1.05640 | 38003 ft | 484 kts | 348° |
| 2026-05-04 09:23 | 42.30995 | 1.04789 | 38009 ft | 484 kts | 349° |
| 2026-05-04 09:25 | 42.57707 | 1.01858 | 37987 ft | 481 kts | 350° |
| 2026-05-04 09:26 | 42.64393 | 1.01133 | 37952 ft | 482 kts | 350° |
| 2026-05-04 09:26 | 42.71061 | 1.00408 | 37986 ft | 480 kts | 349° |
| 2026-05-04 09:27 | 42.77744 | 0.99615 | 37981 ft | 481 kts | 346° |
| 2026-05-04 09:27 | 42.84234 | 0.97617 | 37977 ft | 478 kts | 339° |
| 2026-05-04 09:28 | 42.90658 | 0.95264 | 37971 ft | 479 kts | 339° |
| 2026-05-04 09:28 | 42.97098 | 0.92962 | 37975 ft | 479 kts | 339° |
| 2026-05-04 09:29 | 43.03565 | 0.90714 | 37996 ft | 480 kts | 340° |
| 2026-05-04 09:29 | 43.10055 | 0.88471 | 37974 ft | 481 kts | 340° |
| 2026-05-04 09:30 | 43.16567 | 0.86215 | 37960 ft | 483 kts | 340° |
| 2026-05-04 09:30 | 43.23046 | 0.83962 | 37975 ft | 483 kts | 340° |
| 2026-05-04 09:31 | 43.29558 | 0.81692 | 37967 ft | 482 kts | 340° |
| 2026-05-04 09:31 | 43.36054 | 0.79422 | 37958 ft | 480 kts | 340° |
| 2026-05-04 09:32 | 43.42542 | 0.77150 | 37963 ft | 478 kts | 340° |
| 2026-05-04 09:34 | 43.67672 | 0.66082 | 37961 ft | 472 kts | 336° |
| 2026-05-04 09:34 | 43.73905 | 0.63218 | 37973 ft | 472 kts | 336° |
| 2026-05-04 09:35 | 43.80116 | 0.60371 | 37958 ft | 472 kts | 336° |
| 2026-05-04 09:35 | 43.86357 | 0.57503 | 37965 ft | 472 kts | 337° |
| 2026-05-04 09:37 | 44.11508 | 0.45872 | 37950 ft | 481 kts | 337° |
| 2026-05-04 09:38 | 44.17850 | 0.42926 | 37974 ft | 481 kts | 337° |
| 2026-05-04 09:38 | 44.24195 | 0.39970 | 37970 ft | 480 kts | 337° |
| 2026-05-04 09:39 | 44.30521 | 0.37016 | 37972 ft | 479 kts | 337° |
| 2026-05-04 09:39 | 44.36792 | 0.34081 | 37963 ft | 477 kts | 337° |
| 2026-05-04 09:40 | 44.43078 | 0.31132 | 37970 ft | 476 kts | 337° |
| 2026-05-04 09:40 | 44.49349 | 0.28183 | 37951 ft | 475 kts | 337° |
| 2026-05-04 09:42 | 44.74350 | 0.16356 | 37958 ft | 475 kts | 337° |
| 2026-05-04 09:43 | 44.80619 | 0.13375 | 37959 ft | 476 kts | 337° |
| 2026-05-04 09:43 | 44.86908 | 0.10376 | 37955 ft | 478 kts | 337° |
| 2026-05-04 09:44 | 44.93209 | 0.07365 | 37951 ft | 479 kts | 337° |
| 2026-05-04 09:46 | 45.18559 | -0.04819 | 37949 ft | 483 kts | 338° |
| 2026-05-04 09:46 | 45.24876 | -0.07873 | 37962 ft | 482 kts | 338° |
| 2026-05-04 09:47 | 45.31210 | -0.10942 | 37959 ft | 480 kts | 338° |
| 2026-05-04 09:49 | 45.56341 | -0.23192 | 37966 ft | 475 kts | 338° |
| 2026-05-04 09:51 | 45.78220 | -0.33954 | 37975 ft | 476 kts | 338° |
| 2026-05-04 09:51 | 45.84484 | -0.37052 | 37968 ft | 477 kts | 338° |
| 2026-05-04 09:52 | 45.90755 | -0.40160 | 37972 ft | 477 kts | 338° |
| 2026-05-04 09:52 | 45.95983 | -0.42757 | 37971 ft | 478 kts | 338° |
| 2026-05-04 09:53 | 46.02269 | -0.45887 | 37973 ft | 479 kts | 338° |
| 2026-05-04 09:53 | 46.08577 | -0.49034 | 37972 ft | 480 kts | 338° |
| 2026-05-04 09:54 | 46.14887 | -0.52191 | 37972 ft | 480 kts | 338° |
| 2026-05-04 09:54 | 46.21205 | -0.55359 | 37973 ft | 481 kts | 338° |
| 2026-05-04 09:55 | 46.27519 | -0.58533 | 37980 ft | 480 kts | 338° |
| 2026-05-04 09:55 | 46.33826 | -0.61712 | 37972 ft | 480 kts | 338° |
| 2026-05-04 09:56 | 46.40138 | -0.64900 | 37972 ft | 480 kts | 338° |
| 2026-05-04 09:56 | 46.46639 | -0.67156 | 37987 ft | 483 kts | 351° |
| 2026-05-04 09:57 | 46.53330 | -0.68206 | 37960 ft | 484 kts | 352° |
| 2026-05-04 09:57 | 46.60029 | -0.69209 | 37971 ft | 484 kts | 352° |
| 2026-05-04 09:58 | 46.66720 | -0.70289 | 37971 ft | 483 kts | 351° |
| 2026-05-04 09:58 | 46.73398 | -0.71414 | 37970 ft | 483 kts | 351° |
| 2026-05-04 10:00 | 47.00098 | -0.75957 | 37985 ft | 482 kts | 351° |
| 2026-05-04 10:04 | 47.46738 | -0.83988 | 37985 ft | 483 kts | 351° |
| 2026-05-04 10:04 | 47.53413 | -0.85149 | 37976 ft | 483 kts | 351° |
| 2026-05-04 10:05 | 47.60100 | -0.86103 | 37982 ft | 483 kts | 354° |
| 2026-05-04 10:05 | 47.66795 | -0.86858 | 37976 ft | 482 kts | 354° |
| 2026-05-04 10:06 | 47.73475 | -0.87622 | 37974 ft | 481 kts | 354° |
| 2026-05-04 10:06 | 47.80146 | -0.88423 | 37975 ft | 481 kts | 353° |
| 2026-05-04 10:08 | 48.03442 | -0.91298 | 37971 ft | 477 kts | 353° |
| 2026-05-04 10:08 | 48.10014 | -0.92113 | 37964 ft | 476 kts | 353° |
| 2026-05-04 10:09 | 48.16619 | -0.92934 | 37970 ft | 476 kts | 353° |
| 2026-05-04 10:09 | 48.23209 | -0.93755 | 37981 ft | 475 kts | 353° |
| 2026-05-04 10:10 | 48.29836 | -0.94583 | 37977 ft | 475 kts | 353° |
| 2026-05-04 10:10 | 48.36417 | -0.95407 | 37978 ft | 475 kts | 353° |
| 2026-05-04 10:11 | 48.43004 | -0.96235 | 37980 ft | 475 kts | 353° |
| 2026-05-04 10:11 | 48.49585 | -0.97064 | 37981 ft | 475 kts | 354° |
| 2026-05-04 10:12 | 48.56177 | -0.97896 | 37975 ft | 476 kts | 354° |
| 2026-05-04 10:12 | 48.62733 | -0.98725 | 37980 ft | 476 kts | 354° |
| 2026-05-04 10:13 | 48.69370 | -0.99568 | 37982 ft | 476 kts | 354° |
| 2026-05-04 10:13 | 48.75932 | -1.00403 | 37987 ft | 476 kts | 354° |
| 2026-05-04 10:14 | 48.82544 | -1.01246 | 37972 ft | 476 kts | 354° |
| 2026-05-04 10:16 | 49.08935 | -1.04635 | 38012 ft | 475 kts | 354° |
| 2026-05-04 10:16 | 49.15543 | -1.05489 | 37995 ft | 476 kts | 354° |
| 2026-05-04 10:17 | 49.22149 | -1.06346 | 38002 ft | 476 kts | 354° |
| 2026-05-04 10:19 | 49.48545 | -1.09791 | 38014 ft | 477 kts | 354° |
| 2026-05-04 10:19 | 49.55157 | -1.10659 | 38015 ft | 477 kts | 354° |
| 2026-05-04 10:20 | 49.61793 | -1.10888 | 38033 ft | 478 kts | 4° |
| 2026-05-04 10:20 | 49.68371 | -1.09824 | 38012 ft | 477 kts | 5° |
| 2026-05-04 10:21 | 49.74974 | -1.08803 | 38021 ft | 477 kts | 4° |
| 2026-05-04 10:21 | 49.81586 | -1.07896 | 38006 ft | 476 kts | 4° |
| 2026-05-04 10:22 | 49.91471 | -1.06563 | 38009 ft | 474 kts | 4° |
| 2026-05-04 10:23 | 49.98051 | -1.05667 | 38016 ft | 474 kts | 4° |
| 2026-05-04 10:25 | 50.24221 | -1.01999 | 38020 ft | 471 kts | 5° |
| 2026-05-04 10:25 | 50.30704 | -1.01082 | 38013 ft | 470 kts | 5° |
| 2026-05-04 10:26 | 50.37214 | -1.00164 | 38009 ft | 470 kts | 5° |
| 2026-05-04 10:26 | 50.43732 | -0.99255 | 38021 ft | 469 kts | 5° |
| 2026-05-04 10:27 | 50.50243 | -0.98343 | 38005 ft | 469 kts | 5° |
| 2026-05-04 10:27 | 50.56749 | -0.97429 | 38008 ft | 469 kts | 5° |
| 2026-05-04 10:28 | 50.63241 | -0.96513 | 38007 ft | 468 kts | 5° |
| 2026-05-04 10:28 | 50.69726 | -0.95596 | 38005 ft | 468 kts | 5° |
| 2026-05-04 10:29 | 50.76208 | -0.94654 | 38003 ft | 467 kts | 5° |
| 2026-05-04 10:29 | 50.82668 | -0.93492 | 37983 ft | 467 kts | 12° |
| 2026-05-04 10:30 | 50.88871 | -0.90481 | 38016 ft | 467 kts | 18° |
| 2026-05-04 10:30 | 50.95027 | -0.87164 | 37964 ft | 468 kts | 19° |
| 2026-05-04 10:30 | 50.98104 | -0.85521 | 37405 ft | 474 kts | 18° |
| 2026-05-04 10:31 | 51.01224 | -0.83873 | 36849 ft | 472 kts | 18° |
| 2026-05-04 10:31 | 51.04342 | -0.82241 | 36238 ft | 471 kts | 18° |
| 2026-05-04 10:32 | 51.23195 | -0.72406 | 32043 ft | 477 kts | 17° |
| 2026-05-04 10:33 | 51.26335 | -0.70758 | 31519 ft | 473 kts | 17° |
| 2026-05-04 10:33 | 51.29414 | -0.69140 | 31002 ft | 470 kts | 18° |
| 2026-05-04 10:33 | 51.32513 | -0.67509 | 30496 ft | 468 kts | 18° |
| 2026-05-04 10:33 | 51.35600 | -0.65882 | 29934 ft | 465 kts | 18° |
| 2026-05-04 10:34 | 51.38667 | -0.64263 | 29378 ft | 462 kts | 18° |
| 2026-05-04 10:34 | 51.41707 | -0.62656 | 28836 ft | 458 kts | 18° |
| 2026-05-04 10:34 | 51.44719 | -0.61062 | 28315 ft | 454 kts | 18° |
| 2026-05-04 10:34 | 51.47708 | -0.59479 | 27786 ft | 450 kts | 18° |
| 2026-05-04 10:35 | 51.49677 | -0.58434 | 27440 ft | 448 kts | 18° |
| 2026-05-04 10:35 | 51.52624 | -0.56869 | 26933 ft | 444 kts | 18° |
| 2026-05-04 10:35 | 51.55546 | -0.55321 | 26406 ft | 440 kts | 16° |
| 2026-05-04 10:35 | 51.58541 | -0.54472 | 25880 ft | 435 kts | 359° |
| 2026-05-04 10:36 | 51.61509 | -0.55026 | 25414 ft | 427 kts | 345° |
| 2026-05-04 10:36 | 51.64365 | -0.56212 | 24987 ft | 421 kts | 342° |
| 2026-05-04 10:36 | 51.67158 | -0.57514 | 24621 ft | 415 kts | 341° |
| 2026-05-04 10:36 | 51.69898 | -0.58835 | 24307 ft | 407 kts | 341° |
| 2026-05-04 10:37 | 51.72580 | -0.60141 | 24086 ft | 399 kts | 341° |
| 2026-05-04 10:37 | 51.75206 | -0.61429 | 23862 ft | 390 kts | 341° |
| 2026-05-04 10:37 | 51.77789 | -0.62703 | 23463 ft | 388 kts | 341° |
| 2026-05-04 10:37 | 51.80387 | -0.63995 | 22721 ft | 393 kts | 341° |
| 2026-05-04 10:39 | 51.95546 | -0.72866 | 18199 ft | 387 kts | 323° |
| 2026-05-04 10:39 | 51.97719 | -0.75468 | 17043 ft | 388 kts | 321° |
| 2026-05-04 10:39 | 51.99852 | -0.78111 | 16129 ft | 383 kts | 321° |
| 2026-05-04 10:40 | 52.01945 | -0.80724 | 15303 ft | 377 kts | 321° |
| 2026-05-04 10:40 | 52.03982 | -0.83274 | 14512 ft | 372 kts | 321° |
| 2026-05-04 10:40 | 52.06016 | -0.85824 | 13708 ft | 366 kts | 321° |
| 2026-05-04 10:40 | 52.08018 | -0.88338 | 12845 ft | 361 kts | 321° |
| 2026-05-04 10:41 | 52.09988 | -0.90815 | 11991 ft | 356 kts | 321° |
| 2026-05-04 10:41 | 52.11936 | -0.93270 | 11157 ft | 352 kts | 321° |
| 2026-05-04 10:41 | 52.13861 | -0.95704 | 10347 ft | 348 kts | 321° |
| 2026-05-04 10:41 | 52.15726 | -0.98064 | 10103 ft | 329 kts | 321° |
| 2026-05-04 10:42 | 52.17474 | -1.00276 | 9962 ft | 309 kts | 321° |
| 2026-05-04 10:42 | 52.19118 | -1.02363 | 9774 ft | 292 kts | 319° |
| 2026-05-04 10:42 | 52.20423 | -1.04809 | 9257 ft | 285 kts | 295° |
| 2026-05-04 10:42 | 52.21111 | -1.07807 | 8708 ft | 281 kts | 285° |
| 2026-05-04 10:43 | 52.21653 | -1.10850 | 8183 ft | 280 kts | 284° |
| 2026-05-04 10:44 | 52.24699 | -1.31929 | 4815 ft | 264 kts | 281° |
| 2026-05-04 10:45 | 52.25037 | -1.34829 | 4360 ft | 261 kts | 281° |
| 2026-05-04 10:45 | 52.25369 | -1.37717 | 4127 ft | 255 kts | 281° |
| 2026-05-04 10:45 | 52.25686 | -1.40515 | 4022 ft | 247 kts | 281° |
| 2026-05-04 10:45 | 52.25986 | -1.43210 | 3992 ft | 235 kts | 280° |
| 2026-05-04 10:46 | 52.26269 | -1.45772 | 3979 ft | 226 kts | 280° |
| 2026-05-04 10:46 | 52.26525 | -1.48282 | 3987 ft | 223 kts | 280° |
| 2026-05-04 10:46 | 52.26800 | -1.50772 | 3994 ft | 222 kts | 280° |
| 2026-05-04 10:46 | 52.27078 | -1.53221 | 3998 ft | 221 kts | 283° |
| 2026-05-04 10:47 | 52.27800 | -1.55368 | 3990 ft | 217 kts | 322° |
| 2026-05-04 10:47 | 52.29094 | -1.56604 | 3980 ft | 219 kts | 330° |
| 2026-05-04 10:47 | 52.30385 | -1.58006 | 3775 ft | 226 kts | 326° |
| 2026-05-04 10:47 | 52.31666 | -1.59480 | 3472 ft | 223 kts | 326° |
| 2026-05-04 10:49 | 52.39329 | -1.68051 | 1668 ft | 161 kts | 328° |
| 2026-05-04 10:49 | 52.40234 | -1.69060 | 1448 ft | 151 kts | 329° |
| 2026-05-04 10:50 | 52.41078 | -1.70001 | 1207 ft | 142 kts | 328° |
| 2026-05-04 10:51 | 52.45992 | -1.75470 | 312 ft | 40 kts | 325° |
| 2026-05-04 10:52 | 52.46126 | -1.75609 | 308 ft | 10 kts | 355° |
| 2026-05-04 10:52 | 52.46195 | -1.75517 | 308 ft | 17 kts | 57° |
| 2026-05-04 10:52 | 52.46177 | -1.75352 | 304 ft | 14 kts | 143° |
| 2026-05-04 10:54 | 52.45677 | -1.74794 | 313 ft | 12 kts | 145° |
| 2026-05-04 10:54 | 52.45606 | -1.74718 | 318 ft | 12 kts | 146° |
| 2026-05-04 10:56 | 52.45376 | -1.73823 | 322 ft | 4 kts | 67° |
| 2026-05-04 10:56 | 52.45369 | -1.73779 | 321 ft | 6 kts | 126° |
| 2026-05-04 10:56 | 52.45335 | -1.73735 | 322 ft | 4 kts | 150° |
| 2026-05-04 10:57 | 52.45316 | -1.73717 | 322 ft | 2 kts | 144° |
| 2026-05-04 10:57 | 52.45316 | -1.73716 | 322 ft | 0 kts | 144° |